Time;durP1;ratioP1;P1;durP2;ratioP2;P2;SDS_P1;SDS_P2;PMS_P1;PMS_P2;Temp;Humidity;BMP_temperature;BMP_pressure;BME280_temperature;BME280_humidity;BME280_pressure;Samples;Min_cycle;Max_cycle;Signal;HPM_P1;HPM_P2
2023/12/18 00:00:13;;;;;;;13.52;4.30;;;;;;;;;;5019739;28;20021;-88
2023/12/18 00:02:39;;;;;;;12.30;3.20;;;;;;;;;;5031798;28;20766;-88
2023/12/18 00:05:06;;;;;;;16.10;4.47;;;;;;;;;;5026834;28;20084;-89
2023/12/18 00:07:32;;;;;;;11.15;3.70;;;;;;;;;;5011900;28;20393;-89
2023/12/18 00:09:58;;;;;;;14.30;3.58;;;;;;;;;;5017107;28;20409;-88
2023/12/18 00:12:24;;;;;;;14.50;4.20;;;;;;;;;;5031722;28;20032;-89
2023/12/18 00:14:50;;;;;;;9.88;3.70;;;;;;;;;;5026320;28;20020;-89
2023/12/18 00:17:16;;;;;;;18.60;4.03;;;;;;;;;;5032502;28;20056;-88
2023/12/18 00:19:42;;;;;;;15.63;3.97;;;;;;;;;;5021914;28;20013;-88
2023/12/18 00:22:08;;;;;;;15.55;3.85;;;;;;;;;;5031653;28;20033;-88
2023/12/18 00:24:34;;;;;;;12.30;3.60;;;;;;;;;;5031554;28;20041;-88
2023/12/18 00:27:00;;;;;;;15.07;3.92;;;;;;;;;;5011955;28;20053;-88
2023/12/18 00:29:26;;;;;;;14.32;3.50;;;;;;;;;;5011897;28;20022;-89
2023/12/18 00:31:52;;;;;;;15.02;4.03;;;;;;;;;;5030120;28;20033;-88
2023/12/18 00:34:18;;;;;;;20.30;4.13;;;;;;;;;;5030050;28;20310;-89
2023/12/18 00:36:44;;;;;;;16.35;4.15;;;;;;;;;;5009806;28;20044;-87
2023/12/18 00:39:15;;;;;;;10.85;3.35;;;;;;;;;;5011727;28;20010;-88
2023/12/18 00:41:41;;;;;;;10.15;3.55;;;;;;;;;;5028309;28;20470;-89
2023/12/18 00:44:07;;;;;;;16.77;3.95;;;;;;;;;;5032113;28;20473;-89
2023/12/18 00:46:33;;;;;;;14.48;4.65;;;;;;;;;;5030897;28;20025;-89
2023/12/18 00:48:59;;;;;;;10.20;3.90;;;;;;;;;;5031302;28;20029;-88
2023/12/18 00:51:25;;;;;;;10.52;3.80;;;;;;;;;;5031873;28;20025;-88
2023/12/18 00:53:51;;;;;;;14.07;4.20;;;;;;;;;;5031167;28;20017;-87
2023/12/18 00:56:17;;;;;;;18.00;4.70;;;;;;;;;;5032377;28;20068;-88
2023/12/18 00:58:43;;;;;;;13.52;4.70;;;;;;;;;;5032143;28;20276;-89
2023/12/18 01:01:10;;;;;;;15.43;5.40;;;;;;;;;;5024201;28;20021;-88
2023/12/18 01:03:37;;;;;;;18.80;5.25;;;;;;;;;;5031005;28;20018;-88
2023/12/18 01:06:05;;;;;;;16.75;4.60;;;;;;;;;;5030767;28;20022;-89
2023/12/18 01:08:31;;;;;;;11.88;3.88;;;;;;;;;;5031409;28;20013;-87
2023/12/18 01:10:57;;;;;;;15.93;4.10;;;;;;;;;;5026475;28;20046;-87
2023/12/18 01:13:23;;;;;;;13.05;3.70;;;;;;;;;;5013671;28;20017;-87
2023/12/18 01:15:50;;;;;;;11.23;3.63;;;;;;;;;;5016829;28;20366;-87
2023/12/18 01:18:16;;;;;;;16.13;3.45;;;;;;;;;;5032995;28;20041;-87
2023/12/18 01:20:42;;;;;;;12.63;3.75;;;;;;;;;;5027434;28;20010;-87
2023/12/18 01:23:08;;;;;;;11.45;3.92;;;;;;;;;;5032672;28;20381;-87
2023/12/18 01:25:34;;;;;;;15.82;4.60;;;;;;;;;;5033093;28;20024;-87
2023/12/18 01:28:00;;;;;;;12.35;3.63;;;;;;;;;;5014156;28;20022;-89
2023/12/18 01:30:27;;;;;;;16.25;3.80;;;;;;;;;;5011671;28;20581;-89
2023/12/18 01:32:53;;;;;;;9.32;3.47;;;;;;;;;;5027114;28;20042;-88
2023/12/18 01:35:19;;;;;;;13.55;3.88;;;;;;;;;;5031339;28;20021;-87
2023/12/18 01:37:45;;;;;;;15.07;3.50;;;;;;;;;;5017182;28;20107;-88
2023/12/18 01:40:11;;;;;;;12.02;3.60;;;;;;;;;;5012079;28;20017;-89
2023/12/18 01:42:39;;;;;;;12.73;4.30;;;;;;;;;;5010998;28;20068;-89
2023/12/18 01:45:05;;;;;;;10.30;2.92;;;;;;;;;;5011349;28;20017;-89
2023/12/18 01:47:31;;;;;;;13.30;3.50;;;;;;;;;;5011927;28;20018;-89
2023/12/18 01:49:58;;;;;;;12.52;3.45;;;;;;;;;;5012161;28;20014;-88
2023/12/18 01:52:24;;;;;;;14.57;3.28;;;;;;;;;;5010818;28;20381;-88
2023/12/18 01:54:50;;;;;;;11.95;3.20;;;;;;;;;;5010859;28;20072;-88
2023/12/18 01:57:17;;;;;;;19.85;3.60;;;;;;;;;;5022642;28;20132;-89
2023/12/18 01:59:43;;;;;;;14.60;3.55;;;;;;;;;;5037123;28;20049;-88
2023/12/18 02:02:09;;;;;;;12.15;3.33;;;;;;;;;;5029909;28;20026;-89
2023/12/18 02:04:36;;;;;;;15.75;3.38;;;;;;;;;;5018321;28;20014;-88
2023/12/18 02:07:03;;;;;;;17.33;3.45;;;;;;;;;;5016540;28;20476;-82
2023/12/18 02:09:30;;;;;;;12.90;3.30;;;;;;;;;;5017119;28;20018;-88
2023/12/18 02:11:56;;;;;;;11.65;3.20;;;;;;;;;;5021570;28;20034;-88
2023/12/18 02:14:22;;;;;;;12.48;3.83;;;;;;;;;;5038188;28;20069;-88
2023/12/18 02:16:48;;;;;;;11.10;3.55;;;;;;;;;;5022084;28;20029;-88
2023/12/18 02:19:27;;;;;;;12.75;3.50;;;;;;;;;;5037955;28;20010;-88
2023/12/18 02:21:56;;;;;;;14.65;3.58;;;;;;;;;;5033265;28;20377;-88
2023/12/18 02:24:23;;;;;;;11.68;3.67;;;;;;;;;;5017021;28;20041;-88
2023/12/18 02:26:49;;;;;;;11.85;3.13;;;;;;;;;;5020855;28;20013;-87
2023/12/18 02:29:15;;;;;;;11.32;3.35;;;;;;;;;;5037798;28;20014;-87
2023/12/18 02:31:42;;;;;;;14.13;3.42;;;;;;;;;;5037712;28;20048;-88
2023/12/18 02:34:08;;;;;;;10.77;3.90;;;;;;;;;;5036215;28;20020;-88
2023/12/18 02:36:34;;;;;;;15.73;4.22;;;;;;;;;;5024997;28;20013;-88
2023/12/18 02:39:00;;;;;;;12.82;3.38;;;;;;;;;;5037397;28;20013;-88
2023/12/18 02:41:26;;;;;;;15.43;4.00;;;;;;;;;;5036816;28;20018;-88
2023/12/18 02:43:52;;;;;;;10.77;2.97;;;;;;;;;;5018775;28;20502;-89
2023/12/18 02:46:18;;;;;;;14.10;3.13;;;;;;;;;;5016975;28;20083;-89
2023/12/18 02:48:44;;;;;;;12.98;3.50;;;;;;;;;;5033357;28;20083;-87
2023/12/18 02:51:11;;;;;;;15.52;3.22;;;;;;;;;;5036455;28;20087;-88
2023/12/18 02:53:37;;;;;;;14.15;3.63;;;;;;;;;;5034703;28;20014;-88
2023/12/18 02:56:03;;;;;;;12.50;3.88;;;;;;;;;;5037852;28;20018;-88
2023/12/18 02:58:29;;;;;;;12.38;3.33;;;;;;;;;;5040153;28;20021;-88
2023/12/18 03:00:55;;;;;;;12.70;3.25;;;;;;;;;;5036887;28;20029;-88
2023/12/18 03:03:21;;;;;;;14.82;3.88;;;;;;;;;;5024899;28;20014;-88
2023/12/18 03:05:47;;;;;;;11.85;3.50;;;;;;;;;;5016677;28;20079;-88
2023/12/18 03:08:13;;;;;;;21.17;4.15;;;;;;;;;;5024801;28;20393;-88
2023/12/18 03:10:39;;;;;;;12.52;3.35;;;;;;;;;;5034193;28;20052;-88
2023/12/18 03:13:05;;;;;;;11.20;3.30;;;;;;;;;;5024304;28;20049;-88
2023/12/18 03:15:31;;;;;;;17.30;3.50;;;;;;;;;;5013483;28;20053;-87
2023/12/18 03:17:57;;;;;;;17.63;3.65;;;;;;;;;;5020109;28;20040;-88
2023/12/18 03:20:23;;;;;;;17.55;3.90;;;;;;;;;;5034167;28;20024;-87
2023/12/18 03:22:48;;;;;;;16.42;3.92;;;;;;;;;;5027607;28;20025;-88
2023/12/18 03:25:14;;;;;;;14.27;3.15;;;;;;;;;;5014497;28;20079;-88
2023/12/18 03:27:40;;;;;;;8.27;2.90;;;;;;;;;;5032965;28;20022;-88
2023/12/18 03:30:07;;;;;;;13.68;3.28;;;;;;;;;;5033841;28;20025;-88
2023/12/18 03:32:33;;;;;;;15.10;3.53;;;;;;;;;;5032765;28;20030;-88
2023/12/18 03:34:59;;;;;;;11.05;3.05;;;;;;;;;;5032902;28;20014;-89
2023/12/18 03:37:25;;;;;;;10.57;3.35;;;;;;;;;;5033356;28;20477;-89
2023/12/18 03:39:51;;;;;;;11.57;3.00;;;;;;;;;;5014262;28;20241;-89
2023/12/18 03:42:17;;;;;;;13.95;3.13;;;;;;;;;;5012675;28;20500;-88
2023/12/18 03:44:43;;;;;;;18.63;3.80;;;;;;;;;;5013196;28;20048;-88
2023/12/18 03:47:09;;;;;;;14.73;3.95;;;;;;;;;;5014278;28;20018;-88
2023/12/18 03:49:35;;;;;;;18.60;3.58;;;;;;;;;;5028721;28;20096;-88
2023/12/18 03:52:01;;;;;;;12.68;3.08;;;;;;;;;;5022578;28;20608;-88
2023/12/18 03:54:28;;;;;;;14.30;3.58;;;;;;;;;;5027957;28;20477;-88
2023/12/18 03:56:54;;;;;;;15.63;3.97;;;;;;;;;;5032392;28;20021;-88
2023/12/18 03:59:20;;;;;;;15.02;3.45;;;;;;;;;;5021438;28;20097;-89
2023/12/18 04:01:46;;;;;;;12.60;3.10;;;;;;;;;;5012564;28;20117;-89
2023/12/18 04:04:13;;;;;;;11.05;3.75;;;;;;;;;;5023118;28;20552;-87
2023/12/18 04:06:43;;;;;;;14.38;3.80;;;;;;;;;;5033394;28;20018;-89
2023/12/18 04:09:09;;;;;;;14.50;3.28;;;;;;;;;;5024995;28;20029;-88
2023/12/18 04:11:35;;;;;;;11.38;2.88;;;;;;;;;;5012103;28;20048;-87
2023/12/18 04:14:02;;;;;;;12.02;3.45;;;;;;;;;;5018336;28;20013;-88
2023/12/18 04:16:28;;;;;;;11.18;3.10;;;;;;;;;;5031855;28;20121;-88
2023/12/18 04:18:54;;;;;;;15.40;3.83;;;;;;;;;;5016918;28;20157;-88
2023/12/18 04:21:20;;;;;;;12.50;3.65;;;;;;;;;;5032344;28;20493;-88
2023/12/18 04:23:46;;;;;;;14.18;3.67;;;;;;;;;;5032287;28;20461;-88
2023/12/18 04:26:12;;;;;;;15.15;4.18;;;;;;;;;;5017019;28;20477;-89
2023/12/18 04:28:38;;;;;;;9.93;3.42;;;;;;;;;;5013111;28;20104;-89
2023/12/18 04:31:04;;;;;;;18.05;3.70;;;;;;;;;;5011947;28;20030;-89
2023/12/18 04:33:30;;;;;;;12.70;3.65;;;;;;;;;;5012103;28;20030;-89
2023/12/18 04:35:56;;;;;;;12.98;3.33;;;;;;;;;;5028791;28;20025;-89
2023/12/18 04:38:22;;;;;;;14.60;4.63;;;;;;;;;;5024565;28;20079;-89
2023/12/18 04:40:49;;;;;;;10.05;3.53;;;;;;;;;;5031891;28;20088;-89
2023/12/18 04:43:15;;;;;;;19.73;4.20;;;;;;;;;;5014271;28;20014;-88
2023/12/18 04:45:41;;;;;;;12.13;4.07;;;;;;;;;;5027474;28;20425;-88
2023/12/18 04:48:07;;;;;;;15.65;3.88;;;;;;;;;;5031527;28;20090;-89
2023/12/18 04:50:33;;;;;;;14.13;4.47;;;;;;;;;;5030950;28;20010;-88
2023/12/18 04:52:59;;;;;;;16.58;3.90;;;;;;;;;;5032188;28;20076;-88
2023/12/18 04:55:25;;;;;;;16.55;4.80;;;;;;;;;;5025067;28;20045;-88
2023/12/18 04:57:51;;;;;;;14.45;3.47;;;;;;;;;;5031144;28;20108;-88
2023/12/18 05:00:17;;;;;;;14.40;4.07;;;;;;;;;;5030948;28;20117;-87
2023/12/18 05:02:43;;;;;;;12.32;4.20;;;;;;;;;;5016195;28;20076;-88
2023/12/18 05:05:09;;;;;;;13.10;3.55;;;;;;;;;;5019205;28;20018;-88
2023/12/18 05:07:35;;;;;;;14.52;4.00;;;;;;;;;;5015978;28;20064;-87
2023/12/18 05:10:02;;;;;;;16.70;4.10;;;;;;;;;;5018690;28;20021;-88
2023/12/18 05:12:28;;;;;;;18.10;3.72;;;;;;;;;;5032088;28;20021;-89
2023/12/18 05:14:54;;;;;;;10.48;3.67;;;;;;;;;;5030759;28;20029;-89
2023/12/18 05:17:20;;;;;;;13.55;4.25;;;;;;;;;;5030691;28;20033;-89
2023/12/18 05:19:46;;;;;;;17.33;3.97;;;;;;;;;;5023702;28;20386;-87
2023/12/18 05:22:12;;;;;;;16.35;4.63;;;;;;;;;;5004943;28;20022;-87
2023/12/18 05:24:38;;;;;;;14.32;3.67;;;;;;;;;;5009220;28;20033;-88
2023/12/18 05:27:04;;;;;;;9.23;3.20;;;;;;;;;;5008266;28;20057;-88
2023/12/18 05:29:30;;;;;;;14.65;3.90;;;;;;;;;;5007922;28;20018;-88
2023/12/18 05:31:56;;;;;;;21.65;4.28;;;;;;;;;;5007260;28;20072;-85
2023/12/18 05:34:22;;;;;;;20.60;3.42;;;;;;;;;;5007446;28;20025;-92
2023/12/18 05:36:48;;;;;;;14.93;4.43;;;;;;;;;;5008928;28;20021;-92
2023/12/18 05:39:14;;;;;;;12.90;3.50;;;;;;;;;;5010378;28;20063;-90
2023/12/18 05:41:40;;;;;;;15.70;3.78;;;;;;;;;;5011345;28;20101;-91
2023/12/18 05:44:06;;;;;;;13.32;3.42;;;;;;;;;;5006783;28;20447;-90
2023/12/18 05:46:32;;;;;;;16.58;4.28;;;;;;;;;;5011870;28;20018;-91
2023/12/18 05:48:58;;;;;;;14.25;3.85;;;;;;;;;;5010462;28;20014;-91
2023/12/18 05:51:24;;;;;;;15.30;3.95;;;;;;;;;;5012135;28;20025;-91
2023/12/18 05:53:50;;;;;;;16.50;4.18;;;;;;;;;;5008947;28;20097;-90
2023/12/18 05:56:16;;;;;;;17.13;3.67;;;;;;;;;;5010126;28;20021;-84
2023/12/18 05:58:42;;;;;;;18.92;3.63;;;;;;;;;;5009416;28;20017;-88
2023/12/18 06:01:09;;;;;;;9.82;3.75;;;;;;;;;;5010267;28;20022;-83
2023/12/18 06:03:35;;;;;;;16.33;4.35;;;;;;;;;;5021015;28;20010;-81
2023/12/18 06:06:01;;;;;;;19.33;3.70;;;;;;;;;;5008859;28;20127;-82
2023/12/18 06:08:27;;;;;;;18.98;3.97;;;;;;;;;;5009618;28;20538;-82
2023/12/18 06:10:53;;;;;;;15.38;3.58;;;;;;;;;;5011897;28;20097;-81
2023/12/18 06:13:19;;;;;;;18.25;4.63;;;;;;;;;;5025221;28;20080;-82
2023/12/18 06:15:45;;;;;;;14.95;3.65;;;;;;;;;;5009511;28;20014;-81
2023/12/18 06:18:11;;;;;;;19.02;4.10;;;;;;;;;;5010266;28;20989;-81
2023/12/18 06:20:37;;;;;;;15.18;3.50;;;;;;;;;;5012826;28;20021;-79
2023/12/18 06:23:03;;;;;;;14.65;4.32;;;;;;;;;;5029686;28;20021;-81
2023/12/18 06:25:29;;;;;;;13.60;3.33;;;;;;;;;;5015453;28;20014;-81
2023/12/18 06:27:55;;;;;;;21.02;3.80;;;;;;;;;;5009471;28;20354;-81
2023/12/18 06:30:21;;;;;;;20.15;4.05;;;;;;;;;;5009570;28;20018;-80
2023/12/18 06:32:47;;;;;;;18.77;4.30;;;;;;;;;;5009085;28;20023;-80
2023/12/18 06:35:13;;;;;;;14.77;4.15;;;;;;;;;;5004416;28;20029;-80
2023/12/18 06:37:39;;;;;;;15.88;3.88;;;;;;;;;;5014565;28;20112;-80
2023/12/18 06:40:06;;;;;;;16.45;3.95;;;;;;;;;;4999739;28;21434;-80
2023/12/18 06:42:32;;;;;;;17.95;4.30;;;;;;;;;;5002072;28;20108;-80
2023/12/18 06:44:58;;;;;;;18.08;3.88;;;;;;;;;;5010296;28;20442;-80
2023/12/18 06:47:24;;;;;;;19.02;4.00;;;;;;;;;;5012226;28;20020;-80
2023/12/18 06:49:50;;;;;;;15.75;4.10;;;;;;;;;;5012211;28;20061;-80
2023/12/18 06:52:16;;;;;;;17.55;4.50;;;;;;;;;;5014826;28;20045;-80
2023/12/18 06:54:43;;;;;;;20.23;5.55;;;;;;;;;;5005975;28;20036;-80
2023/12/18 06:57:10;;;;;;;24.05;4.72;;;;;;;;;;5004519;28;20022;-80
2023/12/18 06:59:36;;;;;;;17.92;4.85;;;;;;;;;;5006818;28;20038;-80
2023/12/18 07:02:05;;;;;;;24.73;6.00;;;;;;;;;;5015049;28;20371;-80
2023/12/18 07:04:31;;;;;;;16.30;4.65;;;;;;;;;;5011090;28;20028;-80
2023/12/18 07:06:57;;;;;;;21.58;4.88;;;;;;;;;;5024369;28;20022;-80
2023/12/18 07:09:24;;;;;;;14.68;4.72;;;;;;;;;;5016892;28;20081;-84
2023/12/18 07:11:50;;;;;;;17.38;4.50;;;;;;;;;;4993564;28;20014;-80
2023/12/18 07:14:18;;;;;;;18.08;4.30;;;;;;;;;;5004604;28;20034;-80
2023/12/18 07:16:44;;;;;;;15.30;4.78;;;;;;;;;;5036222;28;20478;-81
2023/12/18 07:19:10;;;;;;;19.60;5.30;;;;;;;;;;5017429;28;20022;-80
2023/12/18 07:21:36;;;;;;;14.45;5.28;;;;;;;;;;5016645;28;20018;-80
2023/12/18 07:24:02;;;;;;;18.17;5.43;;;;;;;;;;5009403;28;20053;-80
2023/12/18 07:26:28;;;;;;;17.60;5.05;;;;;;;;;;5017662;28;20014;-81
2023/12/18 07:28:54;;;;;;;15.98;5.50;;;;;;;;;;5015605;28;20662;-80
2023/12/18 07:31:20;;;;;;;15.10;5.50;;;;;;;;;;5044553;28;20021;-82
2023/12/18 07:33:46;;;;;;;14.95;5.10;;;;;;;;;;5031937;28;20025;-81
2023/12/18 07:36:13;;;;;;;17.42;5.50;;;;;;;;;;5018679;28;20028;-81
2023/12/18 07:38:39;;;;;;;19.65;5.43;;;;;;;;;;5031549;28;20092;-81
2023/12/18 07:41:05;;;;;;;22.00;5.35;;;;;;;;;;5030940;28;20573;-81
2023/12/18 07:43:31;;;;;;;19.63;5.68;;;;;;;;;;5032214;28;20504;-81
2023/12/18 07:45:57;;;;;;;14.93;5.07;;;;;;;;;;5018281;28;20018;-81
2023/12/18 07:48:24;;;;;;;18.70;5.43;;;;;;;;;;5016459;28;20101;-81
2023/12/18 07:50:50;;;;;;;19.73;5.57;;;;;;;;;;5021089;28;20036;-81
2023/12/18 07:53:17;;;;;;;19.95;5.05;;;;;;;;;;5027593;28;20099;-81
2023/12/18 07:55:43;;;;;;;13.88;5.43;;;;;;;;;;5007026;28;20022;-81
2023/12/18 07:58:09;;;;;;;20.48;5.22;;;;;;;;;;5011726;28;20014;-84
2023/12/18 08:00:35;;;;;;;15.40;5.28;;;;;;;;;;5005718;28;20538;-83
2023/12/18 08:03:02;;;;;;;21.85;6.75;;;;;;;;;;5029507;28;20118;-83
2023/12/18 08:05:28;;;;;;;19.98;5.10;;;;;;;;;;5014010;28;20486;-83
2023/12/18 08:07:54;;;;;;;19.42;5.40;;;;;;;;;;5011445;28;20452;-83
2023/12/18 08:10:21;;;;;;;18.00;4.32;;;;;;;;;;5023917;28;20496;-83
2023/12/18 08:12:47;;;;;;;10.48;3.95;;;;;;;;;;5007433;28;20033;-82
2023/12/18 08:15:13;;;;;;;21.92;4.72;;;;;;;;;;5019783;28;20029;-82
2023/12/18 08:17:39;;;;;;;14.45;4.75;;;;;;;;;;5004998;28;20036;-82
2023/12/18 08:20:06;;;;;;;17.77;4.93;;;;;;;;;;5018214;28;20541;-83
2023/12/18 08:22:32;;;;;;;15.43;4.07;;;;;;;;;;5007922;28;20026;-81
2023/12/18 08:25:00;;;;;;;19.15;4.35;;;;;;;;;;5006803;28;20026;-82
2023/12/18 08:27:26;;;;;;;15.13;3.90;;;;;;;;;;5004844;28;20022;-82
2023/12/18 08:29:52;;;;;;;21.25;4.32;;;;;;;;;;5007336;28;20113;-82
2023/12/18 08:32:18;;;;;;;24.65;4.88;;;;;;;;;;5007260;28;20112;-79
2023/12/18 08:34:45;;;;;;;22.08;5.40;;;;;;;;;;5010205;28;20021;-76
2023/12/18 08:37:11;;;;;;;13.77;4.65;;;;;;;;;;5009121;28;20025;-78
2023/12/18 08:39:37;;;;;;;14.15;3.67;;;;;;;;;;5008854;28;20214;-77
2023/12/18 08:42:03;;;;;;;19.30;3.75;;;;;;;;;;5012338;28;20500;-76
2023/12/18 08:44:29;;;;;;;14.13;4.38;;;;;;;;;;5013531;28;20022;-77
2023/12/18 08:46:55;;;;;;;19.65;4.88;;;;;;;;;;5004639;28;20079;-77
2023/12/18 08:49:21;;;;;;;15.82;4.00;;;;;;;;;;5006371;28;20501;-77
2023/12/18 08:51:47;;;;;;;17.77;3.90;;;;;;;;;;5005231;28;20041;-77
2023/12/18 08:54:13;;;;;;;15.93;3.50;;;;;;;;;;5012869;28;20018;-77
2023/12/18 08:56:39;;;;;;;12.43;3.35;;;;;;;;;;5008047;28;20006;-77
2023/12/18 08:59:05;;;;;;;13.15;3.75;;;;;;;;;;5012386;28;20145;-77
2023/12/18 09:01:31;;;;;;;19.77;4.28;;;;;;;;;;5006551;28;20294;-77
2023/12/18 09:03:57;;;;;;;19.73;4.20;;;;;;;;;;5009962;28;20022;-78
2023/12/18 09:06:23;;;;;;;15.48;3.70;;;;;;;;;;5007112;28;20037;-77
2023/12/18 09:08:49;;;;;;;15.75;3.63;;;;;;;;;;5007396;28;20014;-77
2023/12/18 09:11:16;;;;;;;13.82;4.47;;;;;;;;;;5006570;28;20230;-77
2023/12/18 09:13:42;;;;;;;12.98;4.78;;;;;;;;;;5027970;28;20475;-77
2023/12/18 09:16:08;;;;;;;17.20;4.75;;;;;;;;;;5007562;28;20085;-77
2023/12/18 09:18:34;;;;;;;18.60;5.72;;;;;;;;;;5009513;28;20013;-77
2023/12/18 09:21:00;;;;;;;16.40;3.80;;;;;;;;;;5006641;28;20109;-78
2023/12/18 09:23:26;;;;;;;13.02;4.00;;;;;;;;;;4999871;28;20314;-78
2023/12/18 09:25:52;;;;;;;10.32;3.90;;;;;;;;;;5010016;28;20017;-77
2023/12/18 09:28:21;;;;;;;21.33;4.00;;;;;;;;;;5010292;28;20105;-77
2023/12/18 09:30:47;;;;;;;18.05;3.95;;;;;;;;;;5005643;28;20121;-78
2023/12/18 09:33:13;;;;;;;11.27;3.53;;;;;;;;;;5009771;28;20120;-78
2023/12/18 09:35:39;;;;;;;13.90;3.83;;;;;;;;;;5015563;28;20111;-78
2023/12/18 09:38:05;;;;;;;18.27;4.80;;;;;;;;;;5011423;28;20014;-78
2023/12/18 09:40:31;;;;;;;19.98;4.53;;;;;;;;;;5010044;28;20469;-78
2023/12/18 09:42:57;;;;;;;17.73;5.25;;;;;;;;;;5006424;28;20087;-78
2023/12/18 09:45:25;;;;;;;19.17;5.03;;;;;;;;;;5007325;28;20026;-78
2023/12/18 09:47:51;;;;;;;17.15;5.28;;;;;;;;;;5008913;28;20045;-78
2023/12/18 09:50:17;;;;;;;19.67;4.78;;;;;;;;;;5001677;28;20072;-78
2023/12/18 09:52:48;;;;;;;18.13;6.53;;;;;;;;;;5005722;28;20056;-78
2023/12/18 09:55:15;;;;;;;17.40;7.55;;;;;;;;;;5009561;28;20069;-78
2023/12/18 09:57:41;;;;;;;25.42;8.88;;;;;;;;;;5007260;28;20037;-78
2023/12/18 10:00:11;;;;;;;21.20;10.10;;;;;;;;;;5009537;28;20474;-78
2023/12/18 10:02:37;;;;;;;18.48;9.88;;;;;;;;;;5022592;28;20010;-78
2023/12/18 10:05:03;;;;;;;23.88;10.25;;;;;;;;;;5023295;28;20018;-78
2023/12/18 10:07:29;;;;;;;20.40;10.98;;;;;;;;;;5022019;28;20577;-78
2023/12/18 10:09:55;;;;;;;23.75;11.73;;;;;;;;;;5007763;28;20097;-78
2023/12/18 10:12:22;;;;;;;21.90;10.93;;;;;;;;;;5006874;28;20034;-78
2023/12/18 10:14:48;;;;;;;27.92;12.52;;;;;;;;;;5003527;28;20033;-78
2023/12/18 10:17:14;;;;;;;28.00;13.82;;;;;;;;;;5000157;28;20057;-78
2023/12/18 10:19:45;;;;;;;24.40;13.23;;;;;;;;;;5002744;28;20022;-78
2023/12/18 10:22:11;;;;;;;24.25;11.95;;;;;;;;;;5006849;28;20041;-77
2023/12/18 10:24:41;;;;;;;26.58;11.63;;;;;;;;;;5006845;28;20030;-78
2023/12/18 10:27:07;;;;;;;27.67;11.93;;;;;;;;;;5008982;28;20060;-77
2023/12/18 10:29:33;;;;;;;22.98;10.55;;;;;;;;;;5015210;28;20026;-77
2023/12/18 10:31:59;;;;;;;15.52;5.25;;;;;;;;;;5013154;28;20037;-78
2023/12/18 10:34:25;;;;;;;21.20;4.40;;;;;;;;;;5016316;28;20030;-78
2023/12/18 10:36:54;;;;;;;13.73;4.18;;;;;;;;;;5011123;28;20125;-78
2023/12/18 10:39:22;;;;;;;16.38;4.22;;;;;;;;;;5014406;28;20694;-78
2023/12/18 10:41:57;;;;;;;17.30;4.68;;;;;;;;;;5009614;28;20022;-78
2023/12/18 10:44:23;;;;;;;15.57;4.38;;;;;;;;;;5024667;28;20032;-78
2023/12/18 10:46:50;;;;;;;15.10;4.47;;;;;;;;;;5003576;28;20030;-78
2023/12/18 10:49:17;;;;;;;18.02;4.22;;;;;;;;;;5006435;28;20033;-78
2023/12/18 10:51:46;;;;;;;13.88;4.32;;;;;;;;;;5004283;28;20038;-78
2023/12/18 10:54:12;;;;;;;15.82;4.03;;;;;;;;;;5021821;28;20033;-79
2023/12/18 10:56:43;;;;;;;15.25;4.40;;;;;;;;;;5013352;28;20029;-78
2023/12/18 10:59:09;;;;;;;12.73;3.67;;;;;;;;;;5020763;28;20033;-78
2023/12/18 11:01:35;;;;;;;10.57;3.42;;;;;;;;;;5003560;28;20014;-79
2023/12/18 11:04:02;;;;;;;15.48;4.05;;;;;;;;;;5002904;28;20022;-79
2023/12/18 11:06:28;;;;;;;10.85;3.85;;;;;;;;;;5004892;28;20018;-78
2023/12/18 11:08:54;;;;;;;9.77;3.40;;;;;;;;;;5008216;28;20084;-78
2023/12/18 11:11:21;;;;;;;12.10;3.72;;;;;;;;;;5009418;28;20041;-78
2023/12/18 11:13:51;;;;;;;11.68;3.60;;;;;;;;;;5010499;28;20135;-78
2023/12/18 11:16:23;;;;;;;12.13;3.63;;;;;;;;;;5014203;28;20054;-77
2023/12/18 11:19:09;;;;;;;12.98;4.07;;;;;;;;;;5009712;28;20299;-76
2023/12/18 11:21:35;;;;;;;14.25;3.88;;;;;;;;;;5013287;28;20026;-76
2023/12/18 11:24:03;;;;;;;14.05;4.07;;;;;;;;;;5017282;28;20032;-75
2023/12/18 11:26:30;;;;;;;13.02;4.07;;;;;;;;;;5012429;28;20017;-76
2023/12/18 11:28:57;;;;;;;15.23;3.80;;;;;;;;;;5006007;28;20022;-77
2023/12/18 11:31:23;;;;;;;12.38;3.70;;;;;;;;;;5018057;28;20029;-77
2023/12/18 11:34:05;;;;;;;15.10;3.92;;;;;;;;;;5006224;28;20356;-77
2023/12/18 11:36:31;;;;;;;9.60;3.78;;;;;;;;;;5007390;28;20014;-76
2023/12/18 11:38:57;;;;;;;12.82;3.45;;;;;;;;;;5029862;28;20028;-79
2023/12/18 11:41:44;;;;;;;12.57;2.80;;;;;;;;;;5011485;28;20033;-77
2023/12/18 11:44:14;;;;;;;12.57;3.38;;;;;;;;;;5016117;28;20172;-77
2023/12/18 11:46:41;;;;;;;10.45;3.55;;;;;;;;;;5020008;28;20033;-77
2023/12/18 11:49:07;;;;;;;10.00;3.08;;;;;;;;;;5006410;28;20156;-77
2023/12/18 11:51:33;;;;;;;14.55;3.05;;;;;;;;;;5011070;28;20080;-77
2023/12/18 11:54:03;;;;;;;17.92;3.45;;;;;;;;;;5024628;28;20588;-77
2023/12/18 11:56:38;;;;;;;11.93;3.53;;;;;;;;;;5009620;28;20466;-77
2023/12/18 11:59:04;;;;;;;11.75;3.25;;;;;;;;;;5024232;28;20252;-77
2023/12/18 12:01:31;;;;;;;11.68;3.60;;;;;;;;;;5011905;28;20017;-77
2023/12/18 12:03:58;;;;;;;12.43;3.38;;;;;;;;;;5009317;28;20052;-77
2023/12/18 12:06:24;;;;;;;10.80;3.08;;;;;;;;;;5011024;28;20025;-77
2023/12/18 12:08:51;;;;;;;16.20;3.38;;;;;;;;;;5008756;28;20026;-77
2023/12/18 12:11:17;;;;;;;11.52;3.25;;;;;;;;;;5018000;28;20112;-77
2023/12/18 12:13:45;;;;;;;12.90;3.45;;;;;;;;;;5023061;28;20014;-77
2023/12/18 12:16:16;;;;;;;16.88;4.10;;;;;;;;;;5011287;28;20098;-77
2023/12/18 12:18:46;;;;;;;13.05;4.93;;;;;;;;;;5007942;28;20494;-77
2023/12/18 12:21:12;;;;;;;;;;;;;;;;;;5011578;28;20030;-77
2023/12/18 12:23:38;;;;;;;15.32;4.65;;;;;;;;;;5009016;28;19924;-77
2023/12/18 12:26:05;;;;;;;19.67;4.60;;;;;;;;;;5014009;28;20295;-77
2023/12/18 12:28:31;;;;;;;15.57;4.55;;;;;;;;;;5007498;28;20053;-77
2023/12/18 12:30:57;;;;;;;16.35;6.25;;;;;;;;;;5011253;28;20026;-77
2023/12/18 12:33:24;;;;;;;13.77;6.03;;;;;;;;;;5008558;28;20053;-77
2023/12/18 12:35:52;;;;;;;20.05;7.03;;;;;;;;;;5009606;28;20030;-77
2023/12/18 12:38:19;;;;;;;21.63;6.40;;;;;;;;;;5010005;28;20025;-77
2023/12/18 12:40:46;;;;;;;22.15;6.60;;;;;;;;;;5008356;28;20014;-77
2023/12/18 12:43:13;;;;;;;15.68;6.00;;;;;;;;;;5004403;28;20512;-77
2023/12/18 12:45:41;;;;;;;20.42;6.75;;;;;;;;;;5018912;28;20034;-77
2023/12/18 12:48:13;;;;;;;16.98;6.55;;;;;;;;;;5000687;28;20013;-77
2023/12/18 12:50:40;;;;;;;16.30;6.20;;;;;;;;;;4998470;28;20030;-78
2023/12/18 12:53:09;;;;;;;18.45;6.22;;;;;;;;;;4997566;28;20053;-78
2023/12/18 12:55:39;;;;;;;20.98;5.90;;;;;;;;;;4998760;28;20113;-77
2023/12/18 12:58:05;;;;;;;15.30;5.50;;;;;;;;;;4998656;28;20026;-77
2023/12/18 13:00:32;;;;;;;16.45;5.68;;;;;;;;;;5005725;28;20378;-78
2023/12/18 13:02:58;;;;;;;15.35;6.35;;;;;;;;;;5006706;28;20104;-77
2023/12/18 13:05:25;;;;;;;21.02;5.40;;;;;;;;;;5013040;28;20030;-78
2023/12/18 13:07:51;;;;;;;14.30;5.60;;;;;;;;;;5012520;28;20029;-78
2023/12/18 13:10:18;;;;;;;19.23;6.13;;;;;;;;;;5032398;28;20030;-78
2023/12/18 13:12:44;;;;;;;16.60;5.70;;;;;;;;;;5029005;28;20559;-77
2023/12/18 13:15:10;;;;;;;19.35;6.05;;;;;;;;;;5022603;28;20017;-77
2023/12/18 13:17:36;;;;;;;21.80;6.80;;;;;;;;;;5027443;28;20077;-78
2023/12/18 13:20:02;;;;;;;15.95;6.25;;;;;;;;;;5022536;28;20018;-78
2023/12/18 13:22:29;;;;;;;21.65;7.10;;;;;;;;;;5026258;28;20468;-77
2023/12/18 13:24:55;;;;;;;18.98;6.97;;;;;;;;;;5007075;28;20018;-78
2023/12/18 13:27:21;;;;;;;20.80;7.43;;;;;;;;;;5025245;28;20394;-78
2023/12/18 13:29:47;;;;;;;17.77;6.82;;;;;;;;;;5006837;28;20440;-78
2023/12/18 13:32:13;;;;;;;18.42;7.00;;;;;;;;;;5007160;28;20148;-78
2023/12/18 13:34:40;;;;;;;20.08;6.78;;;;;;;;;;4997064;28;20095;-77
2023/12/18 13:37:07;;;;;;;18.35;7.68;;;;;;;;;;5001093;28;20445;-78
2023/12/18 13:39:36;;;;;;;17.88;6.55;;;;;;;;;;4996971;28;20010;-78
2023/12/18 13:42:02;;;;;;;21.20;7.45;;;;;;;;;;5000672;28;20096;-77
2023/12/18 13:44:28;;;;;;;20.70;7.05;;;;;;;;;;5016310;28;20596;-77
2023/12/18 13:46:55;;;;;;;20.45;7.65;;;;;;;;;;4998190;28;20053;-77
2023/12/18 13:49:21;;;;;;;18.70;7.63;;;;;;;;;;4998064;28;20044;-78
2023/12/18 13:51:47;;;;;;;23.63;7.10;;;;;;;;;;5016450;28;20120;-78
2023/12/18 13:54:13;;;;;;;16.05;7.00;;;;;;;;;;4999422;28;20357;-77
2023/12/18 13:56:40;;;;;;;20.00;7.15;;;;;;;;;;4997953;28;20461;-77
2023/12/18 13:59:06;;;;;;;23.77;7.57;;;;;;;;;;4995618;28;20034;-77
2023/12/18 14:01:32;;;;;;;21.23;7.82;;;;;;;;;;5000625;28;20030;-77
2023/12/18 14:03:58;;;;;;;17.42;7.05;;;;;;;;;;4998559;28;20133;-76
2023/12/18 14:06:25;;;;;;;21.23;8.55;;;;;;;;;;4998234;28;20065;-77
2023/12/18 14:08:51;;;;;;;22.38;9.05;;;;;;;;;;5001541;28;20032;-77
2023/12/18 14:11:17;;;;;;;19.27;9.38;;;;;;;;;;5003992;28;20041;-77
2023/12/18 14:13:43;;;;;;;23.77;10.25;;;;;;;;;;5001407;28;20056;-77
2023/12/18 14:16:10;;;;;;;24.88;9.30;;;;;;;;;;4999513;28;20033;-77
2023/12/18 14:18:36;;;;;;;24.88;9.75;;;;;;;;;;5000364;28;20502;-77
2023/12/18 14:21:02;;;;;;;21.50;9.65;;;;;;;;;;4999321;28;20029;-77
2023/12/18 14:23:28;;;;;;;26.33;9.60;;;;;;;;;;5003929;28;20025;-76
2023/12/18 14:25:54;;;;;;;32.25;10.68;;;;;;;;;;5001713;28;20018;-77